Time;durP1;ratioP1;P1;durP2;ratioP2;P2;SDS_P1;SDS_P2;PMS_P1;PMS_P2;Temp;Humidity;BMP_temperature;BMP_pressure;BME280_temperature;BME280_humidity;BME280_pressure;Samples;Min_cycle;Max_cycle;Signal;HPM_P1;HPM_P2
2021/11/19 00:01:16;;;;;;;;;;;20.00;32.80;;;;;;478737;247;2209;-75
2021/11/19 00:03:17;;;;;;;;;;;20.00;32.80;;;;;;478850;247;1313;-75
2021/11/19 00:05:18;;;;;;;;;;;19.90;32.80;;;;;;478930;247;1051;-75
2021/11/19 00:07:20;;;;;;;;;;;19.90;32.90;;;;;;478937;247;1373;-75
2021/11/19 00:09:21;;;;;;;;;;;20.00;32.90;;;;;;479030;247;1224;-75
2021/11/19 00:11:22;;;;;;;;;;;19.90;32.90;;;;;;478875;247;1317;-75
2021/11/19 00:13:24;;;;;;;;;;;19.90;32.90;;;;;;478937;247;986;-75
2021/11/19 00:15:25;;;;;;;;;;;19.90;32.90;;;;;;478845;247;1057;-75
2021/11/19 00:17:26;;;;;;;;;;;19.90;32.90;;;;;;478833;247;1250;-75
2021/11/19 00:19:28;;;;;;;;;;;19.90;32.90;;;;;;478835;247;954;-75
2021/11/19 00:21:29;;;;;;;;;;;19.90;32.90;;;;;;478739;247;2187;-75
2021/11/19 00:23:30;;;;;;;;;;;19.90;33.00;;;;;;478796;247;1182;-75
2021/11/19 00:25:32;;;;;;;;;;;19.90;33.00;;;;;;478793;247;955;-75
2021/11/19 00:27:34;;;;;;;;;;;19.80;33.00;;;;;;478787;247;1225;-75
2021/11/19 00:29:34;;;;;;;;;;;19.80;33.00;;;;;;478806;248;1375;-75
2021/11/19 00:31:36;;;;;;;;;;;19.90;32.90;;;;;;478842;247;1170;-75
2021/11/19 00:33:37;;;;;;;;;;;19.80;32.80;;;;;;478923;247;972;-75
2021/11/19 00:35:38;;;;;;;;;;;19.90;32.80;;;;;;478871;247;1375;-75
2021/11/19 00:37:40;;;;;;;;;;;19.90;32.80;;;;;;478928;247;1138;-75
2021/11/19 00:39:41;;;;;;;;;;;19.90;32.80;;;;;;478944;247;1195;-75
2021/11/19 00:41:42;;;;;;;;;;;19.90;32.80;;;;;;478833;247;2127;-75
2021/11/19 00:43:44;;;;;;;;;;;19.90;32.90;;;;;;478919;247;1054;-75
2021/11/19 00:45:45;;;;;;;;;;;19.90;32.90;;;;;;478800;247;1244;-75
2021/11/19 00:47:46;;;;;;;;;;;19.80;32.80;;;;;;478809;247;1245;-75
2021/11/19 00:49:48;;;;;;;;;;;19.80;32.80;;;;;;478871;247;985;-75
2021/11/19 00:51:49;;;;;;;;;;;19.80;32.80;;;;;;478846;247;1168;-75
2021/11/19 00:53:51;;;;;;;;;;;19.80;32.80;;;;;;478861;247;1137;-75
2021/11/19 00:55:52;;;;;;;;;;;19.80;32.70;;;;;;478894;247;1505;-74
2021/11/19 00:57:53;;;;;;;;;;;19.80;32.70;;;;;;478918;247;1158;-74
2021/11/19 00:59:54;;;;;;;;;;;19.80;32.80;;;;;;478861;248;1096;-75
2021/11/19 01:01:56;;;;;;;;;;;19.90;32.80;;;;;;478786;247;2194;-75
2021/11/19 01:03:57;;;;;;;;;;;19.80;32.70;;;;;;478877;247;1154;-75
2021/11/19 01:05:58;;;;;;;;;;;19.90;32.80;;;;;;478845;247;1191;-75
2021/11/19 01:07:59;;;;;;;;;;;19.90;32.80;;;;;;478956;247;1079;-75
2021/11/19 01:10:01;;;;;;;;;;;19.90;32.70;;;;;;478884;247;1346;-75
2021/11/19 01:12:02;;;;;;;;;;;19.90;32.70;;;;;;478717;247;1244;-75
2021/11/19 01:14:03;;;;;;;;;;;19.80;32.70;;;;;;478834;247;983;-75
2021/11/19 01:16:05;;;;;;;;;;;19.80;32.80;;;;;;478828;247;1111;-75
2021/11/19 01:18:06;;;;;;;;;;;19.90;32.80;;;;;;478866;247;1180;-75
2021/11/19 01:20:08;;;;;;;;;;;19.80;32.80;;;;;;478900;247;948;-75
2021/11/19 01:22:09;;;;;;;;;;;19.90;32.80;;;;;;478780;247;2144;-75
2021/11/19 01:24:10;;;;;;;;;;;19.90;32.60;;;;;;478876;247;1092;-75
2021/11/19 01:26:12;;;;;;;;;;;19.90;32.70;;;;;;478845;247;1227;-75
2021/11/19 01:28:13;;;;;;;;;;;19.90;32.70;;;;;;478893;247;1054;-75
2021/11/19 01:30:14;;;;;;;;;;;19.80;32.60;;;;;;478938;247;1104;-75
2021/11/19 01:32:16;;;;;;;;;;;19.90;32.60;;;;;;478920;247;1173;-75
2021/11/19 01:34:17;;;;;;;;;;;19.90;32.60;;;;;;478913;247;976;-75
2021/11/19 01:36:18;;;;;;;;;;;19.80;32.70;;;;;;478797;247;1139;-75
2021/11/19 01:38:20;;;;;;;;;;;19.90;32.70;;;;;;478838;247;965;-75
2021/11/19 01:40:21;;;;;;;;;;;19.80;32.60;;;;;;478823;247;1133;-75
2021/11/19 01:42:22;;;;;;;;;;;19.80;32.60;;;;;;478726;247;2190;-75
2021/11/19 01:44:24;;;;;;;;;;;19.80;32.60;;;;;;478843;247;1070;-75
2021/11/19 01:46:25;;;;;;;;;;;19.80;32.60;;;;;;478830;247;1201;-75
2021/11/19 01:48:26;;;;;;;;;;;19.80;32.60;;;;;;478872;247;1131;-75
2021/11/19 01:50:28;;;;;;;;;;;19.80;32.70;;;;;;478917;247;962;-75
2021/11/19 01:52:29;;;;;;;;;;;19.80;32.60;;;;;;478900;247;982;-75
2021/11/19 01:54:30;;;;;;;;;;;19.80;32.60;;;;;;479019;247;1172;-75
2021/11/19 01:56:32;;;;;;;;;;;19.80;32.70;;;;;;478875;247;1162;-75
2021/11/19 01:58:33;;;;;;;;;;;19.70;32.70;;;;;;478924;247;1101;-75
2021/11/19 02:00:34;;;;;;;;;;;19.80;32.70;;;;;;478860;247;993;-75
2021/11/19 02:02:37;;;;;;;;;;;19.80;32.70;;;;;;478795;247;2115;-75
2021/11/19 02:04:37;;;;;;;;;;;19.80;32.70;;;;;;478839;247;1502;-75
2021/11/19 02:06:38;;;;;;;;;;;19.70;32.70;;;;;;478852;247;1097;-74
2021/11/19 02:08:39;;;;;;;;;;;19.80;32.70;;;;;;478903;247;974;-75
2021/11/19 02:10:41;;;;;;;;;;;19.70;32.60;;;;;;478867;244;1651;-74
2021/11/19 02:12:44;;;;;;;;;;;19.80;32.60;;;;;;478963;247;1153;-75
2021/11/19 02:14:43;;;;;;;;;;;19.80;32.60;;;;;;478918;248;1983;-75
2021/11/19 02:16:45;;;;;;;;;;;19.80;32.50;;;;;;478833;247;1217;-75
2021/11/19 02:18:46;;;;;;;;;;;19.80;32.50;;;;;;478938;247;993;-75
2021/11/19 02:20:47;;;;;;;;;;;19.80;32.60;;;;;;478884;247;1236;-75
2021/11/19 02:22:49;;;;;;;;;;;19.80;32.60;;;;;;478893;247;2186;-75
2021/11/19 02:24:50;;;;;;;;;;;19.70;32.60;;;;;;478926;247;1185;-75
2021/11/19 02:26:51;;;;;;;;;;;19.70;32.60;;;;;;478853;247;1132;-76
2021/11/19 02:28:53;;;;;;;;;;;19.70;32.60;;;;;;478888;247;1147;-75
2021/11/19 02:30:54;;;;;;;;;;;19.70;32.60;;;;;;478784;247;1189;-75
2021/11/19 02:32:56;;;;;;;;;;;19.70;32.70;;;;;;478888;247;1286;-75
2021/11/19 02:34:57;;;;;;;;;;;19.70;32.70;;;;;;478953;247;1035;-75
2021/11/19 02:36:58;;;;;;;;;;;19.70;32.70;;;;;;478960;247;1091;-75
2021/11/19 02:39:00;;;;;;;;;;;19.70;32.80;;;;;;478974;247;978;-75
2021/11/19 02:41:01;;;;;;;;;;;19.70;32.80;;;;;;478896;247;1172;-75
2021/11/19 02:43:02;;;;;;;;;;;19.70;32.70;;;;;;478917;247;2120;-75
2021/11/19 02:45:04;;;;;;;;;;;19.80;32.80;;;;;;478859;247;956;-76
2021/11/19 02:47:05;;;;;;;;;;;19.80;32.70;;;;;;478722;247;1135;-76
2021/11/19 02:49:06;;;;;;;;;;;19.70;32.80;;;;;;478864;247;1089;-75
2021/11/19 02:51:08;;;;;;;;;;;19.70;32.80;;;;;;478796;247;1167;-76
2021/11/19 02:53:09;;;;;;;;;;;19.60;32.90;;;;;;478852;247;1096;-76
2021/11/19 02:55:10;;;;;;;;;;;19.60;33.10;;;;;;478842;247;1178;-75
2021/11/19 02:57:12;;;;;;;;;;;19.60;33.10;;;;;;478814;247;1119;-75
2021/11/19 02:59:13;;;;;;;;;;;19.60;33.20;;;;;;478878;247;986;-75
2021/11/19 03:01:14;;;;;;;;;;;19.60;33.30;;;;;;478779;247;1257;-75
2021/11/19 03:03:15;;;;;;;;;;;19.50;33.30;;;;;;478881;247;2199;-75
2021/11/19 03:05:17;;;;;;;;;;;19.50;33.30;;;;;;478891;247;1058;-75
2021/11/19 03:07:18;;;;;;;;;;;19.60;33.40;;;;;;478807;247;1199;-75
2021/11/19 03:09:20;;;;;;;;;;;19.50;33.30;;;;;;478954;247;939;-75
2021/11/19 03:11:21;;;;;;;;;;;19.60;33.30;;;;;;478867;247;1218;-75
2021/11/19 03:13:22;;;;;;;;;;;19.60;33.30;;;;;;478885;247;1119;-76
2021/11/19 03:15:24;;;;;;;;;;;19.50;33.30;;;;;;478845;247;1233;-76
2021/11/19 03:17:25;;;;;;;;;;;19.50;33.40;;;;;;478818;247;1089;-76
2021/11/19 03:19:26;;;;;;;;;;;19.50;33.40;;;;;;478854;247;1103;-75
2021/11/19 03:21:28;;;;;;;;;;;19.50;33.40;;;;;;478900;247;2190;-76
2021/11/19 03:23:29;;;;;;;;;;;19.50;33.40;;;;;;478913;247;1101;-75
2021/11/19 03:25:30;;;;;;;;;;;19.50;33.40;;;;;;478848;247;1295;-76
2021/11/19 03:27:32;;;;;;;;;;;19.50;33.40;;;;;;478873;247;1109;-75
2021/11/19 03:29:33;;;;;;;;;;;19.50;33.40;;;;;;478967;247;1245;-75
2021/11/19 03:31:34;;;;;;;;;;;19.50;33.40;;;;;;478870;247;1324;-75
2021/11/19 03:33:36;;;;;;;;;;;19.50;33.40;;;;;;478872;247;1206;-75
2021/11/19 03:35:37;;;;;;;;;;;19.40;33.30;;;;;;478882;247;1255;-75
2021/11/19 03:37:38;;;;;;;;;;;19.50;33.40;;;;;;478883;247;1062;-75
2021/11/19 03:39:40;;;;;;;;;;;19.50;33.40;;;;;;478896;247;1119;-75
2021/11/19 03:41:41;;;;;;;;;;;19.50;33.30;;;;;;478843;247;2202;-76
2021/11/19 03:43:42;;;;;;;;;;;19.50;33.30;;;;;;478996;247;1011;-75
2021/11/19 03:45:43;;;;;;;;;;;19.50;33.30;;;;;;478903;247;1212;-75
2021/11/19 03:47:45;;;;;;;;;;;19.50;33.30;;;;;;478881;247;1201;-75
2021/11/19 03:49:46;;;;;;;;;;;19.40;33.30;;;;;;478944;247;942;-75
2021/11/19 03:51:47;;;;;;;;;;;19.40;33.30;;;;;;478835;247;1192;-75
2021/11/19 03:53:49;;;;;;;;;;;19.50;33.30;;;;;;478889;247;1152;-75
2021/11/19 03:55:50;;;;;;;;;;;19.50;33.20;;;;;;478890;247;1251;-76
2021/11/19 03:57:51;;;;;;;;;;;19.50;33.30;;;;;;478933;247;1118;-75
2021/11/19 03:59:53;;;;;;;;;;;19.40;33.20;;;;;;478891;247;1012;-75
2021/11/19 04:01:54;;;;;;;;;;;19.50;33.20;;;;;;478814;247;2139;-75
2021/11/19 04:03:55;;;;;;;;;;;19.40;33.20;;;;;;478872;247;979;-75
2021/11/19 04:05:57;;;;;;;;;;;19.40;33.20;;;;;;478842;247;1156;-75
2021/11/19 04:07:58;;;;;;;;;;;19.40;33.20;;;;;;478818;247;1069;-76
2021/11/19 04:10:00;;;;;;;;;;;19.40;33.20;;;;;;478903;247;1014;-76
2021/11/19 04:12:01;;;;;;;;;;;19.40;33.30;;;;;;478819;247;1197;-75
2021/11/19 04:14:02;;;;;;;;;;;19.40;33.20;;;;;;478884;247;967;-75
2021/11/19 04:16:03;;;;;;;;;;;19.40;33.30;;;;;;478827;247;1256;-75
2021/11/19 04:18:05;;;;;;;;;;;19.40;33.30;;;;;;478876;247;1052;-76
2021/11/19 04:20:06;;;;;;;;;;;19.40;33.30;;;;;;478915;247;993;-75
2021/11/19 04:22:07;;;;;;;;;;;19.40;33.30;;;;;;478736;247;2211;-75
2021/11/19 04:24:09;;;;;;;;;;;19.40;33.30;;;;;;478859;247;981;-75
2021/11/19 04:26:10;;;;;;;;;;;19.40;33.30;;;;;;478824;247;1225;-75
2021/11/19 04:28:12;;;;;;;;;;;19.40;33.30;;;;;;478853;247;967;-75
2021/11/19 04:30:13;;;;;;;;;;;19.30;33.30;;;;;;478912;247;998;-75
2021/11/19 04:32:16;;;;;;;;;;;19.40;33.30;;;;;;478747;247;1197;-75
2021/11/19 04:34:15;;;;;;;;;;;19.40;33.30;;;;;;478836;248;1669;-75
2021/11/19 04:36:17;;;;;;;;;;;19.40;33.20;;;;;;478810;247;1068;-75
2021/11/19 04:38:18;;;;;;;;;;;19.40;33.20;;;;;;478842;247;1123;-75
2021/11/19 04:40:19;;;;;;;;;;;19.30;33.20;;;;;;478860;247;967;-75
2021/11/19 04:42:21;;;;;;;;;;;19.40;33.30;;;;;;478829;247;2203;-75
2021/11/19 04:44:22;;;;;;;;;;;19.30;33.20;;;;;;478905;247;1262;-76
2021/11/19 04:46:23;;;;;;;;;;;19.40;33.30;;;;;;478795;247;1197;-75
2021/11/19 04:48:26;;;;;;;;;;;19.40;33.30;;;;;;478844;247;1115;-76
2021/11/19 04:50:26;;;;;;;;;;;19.40;33.30;;;;;;478812;248;1376;-76
2021/11/19 04:52:27;;;;;;;;;;;19.40;33.30;;;;;;478858;247;1237;-75
2021/11/19 04:54:29;;;;;;;;;;;19.40;33.30;;;;;;478904;247;947;-75
2021/11/19 04:56:30;;;;;;;;;;;19.40;33.30;;;;;;478775;247;1390;-76
2021/11/19 04:58:32;;;;;;;;;;;19.40;33.30;;;;;;478811;247;1208;-75
2021/11/19 05:00:36;;;;;;;;;;;19.40;33.30;;;;;;478777;247;1387;-75
2021/11/19 05:02:34;;;;;;;;;;;19.40;33.30;;;;;;478697;248;2182;-75
2021/11/19 05:04:35;;;;;;;;;;;19.40;33.40;;;;;;478809;247;963;-75
2021/11/19 05:06:37;;;;;;;;;;;19.40;33.50;;;;;;478763;247;1184;-75
2021/11/19 05:08:38;;;;;;;;;;;19.40;33.60;;;;;;478853;247;953;-75
2021/11/19 05:10:39;;;;;;;;;;;19.30;33.60;;;;;;478861;247;1023;-75
2021/11/19 05:12:40;;;;;;;;;;;19.30;33.70;;;;;;478812;247;1175;-75
2021/11/19 05:14:42;;;;;;;;;;;19.30;33.70;;;;;;478810;247;959;-75
2021/11/19 05:16:43;;;;;;;;;;;19.30;33.70;;;;;;478717;247;1013;-75
2021/11/19 05:18:44;;;;;;;;;;;19.30;33.70;;;;;;478790;247;1136;-75
2021/11/19 05:20:46;;;;;;;;;;;19.30;33.80;;;;;;478843;247;990;-75
2021/11/19 05:22:47;;;;;;;;;;;19.30;33.80;;;;;;478848;247;2128;-75
2021/11/19 05:24:50;;;;;;;;;;;19.30;33.80;;;;;;478941;247;1088;-75
2021/11/19 05:26:50;;;;;;;;;;;19.30;33.80;;;;;;478744;248;1466;-75
2021/11/19 05:28:52;;;;;;;;;;;19.20;33.80;;;;;;478845;247;930;-75
2021/11/19 05:30:53;;;;;;;;;;;19.20;33.80;;;;;;478847;247;1033;-75
2021/11/19 05:32:54;;;;;;;;;;;19.20;33.90;;;;;;478811;247;1000;-75
2021/11/19 05:34:56;;;;;;;;;;;19.20;33.90;;;;;;478784;247;956;-75
2021/11/19 05:36:57;;;;;;;;;;;19.30;34.00;;;;;;478787;247;1170;-75
2021/11/19 05:38:58;;;;;;;;;;;19.30;34.00;;;;;;478713;248;963;-75
2021/11/19 05:40:59;;;;;;;;;;;19.30;33.90;;;;;;478642;247;1122;-75
2021/11/19 05:43:01;;;;;;;;;;;19.30;33.80;;;;;;478653;247;2195;-75
2021/11/19 05:45:02;;;;;;;;;;;19.20;33.80;;;;;;478766;247;956;-76
2021/11/19 05:47:04;;;;;;;;;;;19.30;33.80;;;;;;478621;247;1205;-76
2021/11/19 05:49:05;;;;;;;;;;;19.30;33.90;;;;;;478734;247;1089;-76
2021/11/19 05:51:06;;;;;;;;;;;19.20;33.80;;;;;;478677;247;1123;-75
2021/11/19 05:53:08;;;;;;;;;;;19.20;33.90;;;;;;478731;247;1070;-75
2021/11/19 05:55:09;;;;;;;;;;;19.20;33.90;;;;;;478758;247;1159;-75
2021/11/19 05:57:10;;;;;;;;;;;19.20;33.90;;;;;;478690;247;1190;-75
2021/11/19 05:59:12;;;;;;;;;;;19.20;33.90;;;;;;478731;247;1064;-75
2021/11/19 06:01:13;;;;;;;;;;;19.20;33.90;;;;;;478603;247;1199;-75
2021/11/19 06:03:14;;;;;;;;;;;19.20;33.90;;;;;;478607;247;2210;-75
2021/11/19 06:05:16;;;;;;;;;;;19.20;33.90;;;;;;478665;247;1001;-75
2021/11/19 06:07:18;;;;;;;;;;;19.20;34.00;;;;;;478625;247;988;-75
2021/11/19 06:09:21;;;;;;;;;;;19.20;33.90;;;;;;478630;248;1400;-75
2021/11/19 06:11:21;;;;;;;;;;;19.30;34.00;;;;;;478560;247;1548;-75
2021/11/19 06:13:22;;;;;;;;;;;19.20;33.90;;;;;;478723;247;1184;-75
2021/11/19 06:15:23;;;;;;;;;;;19.30;34.00;;;;;;478723;247;1111;-76
2021/11/19 06:17:25;;;;;;;;;;;19.20;34.00;;;;;;478676;247;1233;-76
2021/11/19 06:19:26;;;;;;;;;;;19.20;34.00;;;;;;478715;247;1176;-75
2021/11/19 06:21:27;;;;;;;;;;;19.20;34.00;;;;;;478671;247;1154;-75
2021/11/19 06:23:29;;;;;;;;;;;19.20;34.10;;;;;;478680;247;2108;-75
2021/11/19 06:25:30;;;;;;;;;;;19.20;34.00;;;;;;478724;248;1376;-75
2021/11/19 06:27:31;;;;;;;;;;;19.20;34.00;;;;;;478665;247;1147;-76
2021/11/19 06:29:33;;;;;;;;;;;19.30;34.10;;;;;;478628;247;1094;-76
2021/11/19 06:31:34;;;;;;;;;;;19.20;34.10;;;;;;478620;247;990;-75
2021/11/19 06:33:35;;;;;;;;;;;19.20;34.00;;;;;;478622;247;960;-75
2021/11/19 06:35:37;;;;;;;;;;;19.20;34.10;;;;;;478595;247;991;-75
2021/11/19 06:37:38;;;;;;;;;;;19.20;34.10;;;;;;478564;247;1123;-75
2021/11/19 06:39:41;;;;;;;;;;;19.20;34.20;;;;;;478511;247;976;-75
2021/11/19 06:41:41;;;;;;;;;;;19.20;34.30;;;;;;478466;248;1416;-75
2021/11/19 06:43:42;;;;;;;;;;;19.20;34.30;;;;;;478568;247;2155;-75
2021/11/19 06:45:43;;;;;;;;;;;19.20;34.20;;;;;;478620;247;1082;-75
2021/11/19 06:47:44;;;;;;;;;;;19.20;34.30;;;;;;478620;247;997;-75
2021/11/19 06:49:46;;;;;;;;;;;19.20;34.30;;;;;;478655;247;985;-76
2021/11/19 06:51:47;;;;;;;;;;;19.20;34.30;;;;;;478531;247;1269;-76
2021/11/19 06:53:48;;;;;;;;;;;19.20;34.30;;;;;;478549;247;1107;-76
2021/11/19 06:55:50;;;;;;;;;;;19.20;34.30;;;;;;478335;247;1094;-75
2021/11/19 06:57:51;;;;;;;;;;;19.20;34.30;;;;;;478306;247;1295;-75
2021/11/19 06:59:52;;;;;;;;;;;19.20;34.30;;;;;;478312;247;1084;-75
2021/11/19 07:01:54;;;;;;;;;;;19.20;34.40;;;;;;478258;247;1049;-74
2021/11/19 07:03:55;;;;;;;;;;;19.20;34.30;;;;;;478165;247;2127;-75
2021/11/19 07:05:56;;;;;;;;;;;19.10;34.30;;;;;;478314;247;1182;-75
2021/11/19 07:07:58;;;;;;;;;;;19.20;34.30;;;;;;478508;247;1057;-75
2021/11/19 07:09:59;;;;;;;;;;;19.20;34.40;;;;;;478357;247;986;-75
2021/11/19 07:12:00;;;;;;;;;;;19.10;34.40;;;;;;478408;247;1125;-75
2021/11/19 07:14:02;;;;;;;;;;;19.10;34.50;;;;;;478274;247;1240;-75
2021/11/19 07:16:03;;;;;;;;;;;19.10;34.50;;;;;;478316;247;1321;-75
2021/11/19 07:18:04;;;;;;;;;;;19.10;34.50;;;;;;478339;247;1151;-75
2021/11/19 07:20:05;;;;;;;;;;;19.00;34.40;;;;;;478358;247;960;-75
2021/11/19 07:22:07;;;;;;;;;;;19.10;34.40;;;;;;478235;247;1140;-75
2021/11/19 07:24:08;;;;;;;;;;;19.00;34.40;;;;;;478234;247;2199;-75
2021/11/19 07:26:10;;;;;;;;;;;19.10;34.40;;;;;;478323;247;1215;-75
2021/11/19 07:28:11;;;;;;;;;;;19.10;34.40;;;;;;478205;247;1195;-75
2021/11/19 07:30:12;;;;;;;;;;;19.00;34.50;;;;;;478381;247;980;-74
2021/11/19 07:32:13;;;;;;;;;;;19.10;34.50;;;;;;478352;247;1086;-74
2021/11/19 07:34:15;;;;;;;;;;;19.00;34.50;;;;;;478466;248;999;-75
2021/11/19 07:36:16;;;;;;;;;;;19.10;34.50;;;;;;478292;247;1049;-75
2021/11/19 07:38:17;;;;;;;;;;;19.00;34.50;;;;;;478007;247;1094;-75
2021/11/19 07:40:19;;;;;;;;;;;19.00;34.50;;;;;;478104;244;1296;-75
2021/11/19 07:42:20;;;;;;;;;;;19.00;34.60;;;;;;478253;247;1163;-75
2021/11/19 07:44:21;;;;;;;;;;;19.00;34.80;;;;;;478162;247;2135;-75
2021/11/19 07:46:23;;;;;;;;;;;19.00;34.90;;;;;;478112;247;1166;-75
2021/11/19 07:48:25;;;;;;;;;;;18.90;34.90;;;;;;478287;247;967;-75
2021/11/19 07:50:25;;;;;;;;;;;18.90;35.00;;;;;;478118;247;1242;-75
2021/11/19 07:52:27;;;;;;;;;;;18.90;35.10;;;;;;478292;247;1106;-75
2021/11/19 07:54:28;;;;;;;;;;;18.80;35.10;;;;;;478305;247;931;-75
2021/11/19 07:56:30;;;;;;;;;;;18.80;35.30;;;;;;478223;247;1313;-75
2021/11/19 07:58:31;;;;;;;;;;;18.80;35.30;;;;;;478302;247;1151;-75
2021/11/19 08:00:33;;;;;;;;;;;18.80;35.50;;;;;;478306;247;1129;-75
2021/11/19 08:02:34;;;;;;;;;;;18.70;35.60;;;;;;478463;247;1008;-75
2021/11/19 08:04:35;;;;;;;;;;;18.70;35.70;;;;;;478207;247;2716;-75
2021/11/19 08:06:36;;;;;;;;;;;18.70;35.60;;;;;;478184;247;1345;-75
2021/11/19 08:08:38;;;;;;;;;;;18.80;35.50;;;;;;478229;247;1044;-75
2021/11/19 08:10:39;;;;;;;;;;;18.90;35.40;;;;;;478158;247;1380;-75
2021/11/19 08:12:41;;;;;;;;;;;19.00;35.40;;;;;;478238;247;1131;-75
2021/11/19 08:14:42;;;;;;;;;;;19.00;35.40;;;;;;478219;247;1181;-75
2021/11/19 08:16:43;;;;;;;;;;;19.00;35.40;;;;;;478058;247;1265;-75
2021/11/19 08:18:45;;;;;;;;;;;19.00;35.40;;;;;;478079;247;1090;-75
2021/11/19 08:20:46;;;;;;;;;;;19.00;35.40;;;;;;478105;247;1020;-75
2021/11/19 08:22:47;;;;;;;;;;;18.90;35.50;;;;;;478235;247;1131;-75
2021/11/19 08:24:49;;;;;;;;;;;18.90;35.70;;;;;;478299;247;2111;-75
2021/11/19 08:26:50;;;;;;;;;;;18.80;35.70;;;;;;478266;247;1156;-75
2021/11/19 08:28:51;;;;;;;;;;;18.80;35.80;;;;;;478270;247;1184;-75
2021/11/19 08:30:53;;;;;;;;;;;18.80;35.80;;;;;;478200;247;1225;-75
2021/11/19 08:32:54;;;;;;;;;;;18.80;35.80;;;;;;478177;247;1037;-75
2021/11/19 08:34:55;;;;;;;;;;;18.90;35.80;;;;;;478190;247;986;-75
2021/11/19 08:36:57;;;;;;;;;;;18.90;35.70;;;;;;478036;247;1210;-76
2021/11/19 08:38:58;;;;;;;;;;;18.90;35.70;;;;;;478028;247;965;-75
2021/11/19 08:40:59;;;;;;;;;;;18.80;35.80;;;;;;478249;247;1128;-75
2021/11/19 08:43:01;;;;;;;;;;;18.80;35.90;;;;;;478141;247;1058;-75
2021/11/19 08:45:02;;;;;;;;;;;18.80;36.00;;;;;;478014;247;2199;-75
2021/11/19 08:47:03;;;;;;;;;;;18.80;36.00;;;;;;478198;247;1224;-75
2021/11/19 08:49:05;;;;;;;;;;;18.70;36.00;;;;;;478098;247;1092;-75
2021/11/19 08:51:06;;;;;;;;;;;18.70;36.10;;;;;;478193;247;1238;-75
2021/11/19 08:53:07;;;;;;;;;;;18.70;36.10;;;;;;478689;247;1650;-75
2021/11/19 08:55:09;;;;;;;;;;;18.70;36.20;;;;;;478137;247;998;-75
2021/11/19 08:57:10;;;;;;;;;;;18.70;36.20;;;;;;478410;247;1169;-75
2021/11/19 08:59:11;;;;;;;;;;;18.80;36.30;;;;;;478304;247;1188;-75
2021/11/19 09:01:13;;;;;;;;;;;18.80;36.30;;;;;;477940;247;1217;-75
2021/11/19 09:03:14;;;;;;;;;;;18.80;36.30;;;;;;477944;247;1214;-75
2021/11/19 09:05:15;;;;;;;;;;;18.80;36.30;;;;;;477977;247;2198;-75
2021/11/19 09:07:17;;;;;;;;;;;18.80;36.30;;;;;;478258;247;1094;-75
2021/11/19 09:09:18;;;;;;;;;;;18.80;36.40;;;;;;478284;247;996;-75
2021/11/19 09:11:20;;;;;;;;;;;18.80;36.40;;;;;;478178;247;1229;-75
2021/11/19 09:13:21;;;;;;;;;;;18.80;36.50;;;;;;478175;247;1339;-75
2021/11/19 09:15:22;;;;;;;;;;;18.80;36.60;;;;;;478197;247;1196;-75
2021/11/19 09:17:24;;;;;;;;;;;18.80;36.70;;;;;;478177;247;1180;-75
2021/11/19 09:19:25;;;;;;;;;;;18.90;36.70;;;;;;478061;247;1172;-75
2021/11/19 09:21:28;;;;;;;;;;;18.90;36.70;;;;;;478204;247;1191;-75
2021/11/19 09:23:28;;;;;;;;;;;18.90;36.70;;;;;;478192;247;1422;-75
2021/11/19 09:25:29;;;;;;;;;;;18.90;36.70;;;;;;478163;247;2119;-75
2021/11/19 09:27:34;;;;;;;;;;;19.00;36.70;;;;;;478061;247;1494;-75
2021/11/19 09:29:32;;;;;;;;;;;19.00;36.70;;;;;;477974;248;1351;-75
2021/11/19 09:31:34;;;;;;;;;;;19.00;36.70;;;;;;477852;247;1045;-75
2021/11/19 09:33:35;;;;;;;;;;;19.00;36.80;;;;;;478081;247;1096;-74
2021/11/19 09:35:36;;;;;;;;;;;19.00;36.80;;;;;;477974;247;1221;-75
2021/11/19 09:37:38;;;;;;;;;;;19.00;36.90;;;;;;478028;247;1041;-75
2021/11/19 09:39:39;;;;;;;;;;;19.10;37.00;;;;;;478048;247;1064;-74
2021/11/19 09:41:40;;;;;;;;;;;19.10;37.00;;;;;;477897;247;1046;-75
2021/11/19 09:43:43;;;;;;;;;;;19.10;37.00;;;;;;478064;247;2191;-75
2021/11/19 09:45:43;;;;;;;;;;;19.10;37.10;;;;;;478002;247;1445;-75
2021/11/19 09:47:44;;;;;;;;;;;19.10;37.20;;;;;;478041;247;1263;-75
2021/11/19 09:49:47;;;;;;;;;;;19.00;37.20;;;;;;477989;247;1129;-75
2021/11/19 09:51:47;;;;;;;;;;;19.00;37.30;;;;;;478021;248;1315;-75
2021/11/19 09:53:48;;;;;;;;;;;19.00;37.30;;;;;;478073;247;1070;-75
2021/11/19 09:55:50;;;;;;;;;;;19.00;37.40;;;;;;478100;247;1446;-75
2021/11/19 09:57:51;;;;;;;;;;;19.00;37.50;;;;;;478111;247;1148;-75
2021/11/19 09:59:52;;;;;;;;;;;19.00;37.50;;;;;;478035;247;1181;-75
2021/11/19 10:01:54;;;;;;;;;;;19.00;37.60;;;;;;477845;247;1625;-75
2021/11/19 10:03:56;;;;;;;;;;;19.00;37.60;;;;;;478053;247;2178;-75
2021/11/19 10:05:56;;;;;;;;;;;19.00;37.60;;;;;;477975;247;1416;-75
2021/11/19 10:07:58;;;;;;;;;;;19.10;37.70;;;;;;478094;247;1078;-75
2021/11/19 10:09:59;;;;;;;;;;;19.00;37.60;;;;;;478153;247;968;-75
2021/11/19 10:12:00;;;;;;;;;;;19.00;37.60;;;;;;477959;247;1046;-75
2021/11/19 10:14:02;;;;;;;;;;;19.00;37.70;;;;;;478018;247;1061;-75
2021/11/19 10:16:03;;;;;;;;;;;19.10;37.70;;;;;;477994;247;1269;-75
2021/11/19 10:18:04;;;;;;;;;;;19.10;37.80;;;;;;477890;247;1154;-75
2021/11/19 10:20:06;;;;;;;;;;;19.00;37.80;;;;;;477913;247;1014;-75
2021/11/19 10:22:07;;;;;;;;;;;19.00;37.70;;;;;;477945;248;1134;-75
2021/11/19 10:24:08;;;;;;;;;;;19.00;37.80;;;;;;478018;247;2190;-75
2021/11/19 10:26:10;;;;;;;;;;;19.10;37.70;;;;;;478204;247;1118;-75
2021/11/19 10:28:11;;;;;;;;;;;19.10;37.80;;;;;;478021;247;1084;-75
2021/11/19 10:30:12;;;;;;;;;;;19.10;37.80;;;;;;478029;247;1283;-75
2021/11/19 10:32:14;;;;;;;;;;;19.10;37.80;;;;;;478348;247;1246;-75
2021/11/19 10:34:15;;;;;;;;;;;19.00;37.70;;;;;;478020;247;965;-75
2021/11/19 10:36:16;;;;;;;;;;;19.00;37.80;;;;;;478177;247;1312;-75
2021/11/19 10:38:18;;;;;;;;;;;19.00;37.80;;;;;;478239;247;981;-75
2021/11/19 10:40:19;;;;;;;;;;;19.00;37.80;;;;;;478078;247;1053;-75
2021/11/19 10:42:20;;;;;;;;;;;19.00;37.80;;;;;;478127;247;1080;-75
2021/11/19 10:44:22;;;;;;;;;;;19.00;37.80;;;;;;478207;247;2134;-75
2021/11/19 10:46:23;;;;;;;;;;;19.10;37.90;;;;;;478138;247;1257;-75
2021/11/19 10:48:24;;;;;;;;;;;19.10;37.90;;;;;;478043;247;1062;-75
2021/11/19 10:50:26;;;;;;;;;;;19.00;37.80;;;;;;478064;247;1058;-75
2021/11/19 10:52:27;;;;;;;;;;;19.10;37.90;;;;;;478309;247;1250;-75
2021/11/19 10:54:28;;;;;;;;;;;19.00;37.90;;;;;;478123;247;940;-75
2021/11/19 10:56:29;;;;;;;;;;;19.10;38.00;;;;;;478164;247;1195;-75
2021/11/19 10:58:31;;;;;;;;;;;19.00;38.00;;;;;;478234;247;1059;-75
2021/11/19 11:00:32;;;;;;;;;;;19.00;38.00;;;;;;478162;247;1166;-75
2021/11/19 11:02:36;;;;;;;;;;;18.90;38.10;;;;;;478049;247;1135;-75
2021/11/19 11:04:35;;;;;;;;;;;19.00;38.10;;;;;;477843;248;2187;-75
2021/11/19 11:06:37;;;;;;;;;;;19.00;38.20;;;;;;478127;247;1123;-75
2021/11/19 11:08:37;;;;;;;;;;;18.90;38.20;;;;;;478179;247;1352;-75
2021/11/19 11:10:39;;;;;;;;;;;18.90;38.30;;;;;;478224;247;1076;-75
2021/11/19 11:12:40;;;;;;;;;;;19.00;38.30;;;;;;478109;247;1139;-75
2021/11/19 11:14:42;;;;;;;;;;;19.00;38.30;;;;;;478244;247;1118;-75
2021/11/19 11:16:43;;;;;;;;;;;19.00;38.30;;;;;;478123;247;1217;-75
2021/11/19 11:18:44;;;;;;;;;;;19.00;38.30;;;;;;478306;247;1026;-75
2021/11/19 11:20:45;;;;;;;;;;;19.00;38.30;;;;;;478222;247;1209;-75
2021/11/19 11:22:47;;;;;;;;;;;19.00;38.30;;;;;;478054;247;1251;-75
2021/11/19 11:24:48;;;;;;;;;;;18.90;38.30;;;;;;478226;247;2182;-75
2021/11/19 11:26:49;;;;;;;;;;;18.90;38.40;;;;;;478119;247;978;-75
2021/11/19 11:28:51;;;;;;;;;;;19.00;38.40;;;;;;478157;247;1065;-75
2021/11/19 11:30:52;;;;;;;;;;;19.00;38.40;;;;;;478191;247;1133;-75
2021/11/19 11:32:54;;;;;;;;;;;19.00;38.40;;;;;;478322;247;1165;-75
2021/11/19 11:34:55;;;;;;;;;;;19.00;38.30;;;;;;478262;247;1065;-75
2021/11/19 11:36:56;;;;;;;;;;;19.00;38.30;;;;;;478137;247;1063;-75
2021/11/19 11:38:58;;;;;;;;;;;19.00;38.30;;;;;;477939;247;1378;-75
2021/11/19 11:41:02;;;;;;;;;;;19.10;38.30;;;;;;478071;247;1176;-75
2021/11/19 11:43:00;;;;;;;;;;;19.20;38.20;;;;;;478034;248;1429;-75
2021/11/19 11:45:02;;;;;;;;;;;19.20;38.10;;;;;;478182;247;2191;-75
2021/11/19 11:47:03;;;;;;;;;;;19.30;38.00;;;;;;478149;247;1197;-75
2021/11/19 11:49:04;;;;;;;;;;;19.30;38.00;;;;;;478344;247;617;-75
2021/11/19 11:51:05;;;;;;;;;;;19.30;38.00;;;;;;478257;247;967;-75
2021/11/19 11:53:07;;;;;;;;;;;19.30;38.00;;;;;;478226;247;1048;-75
2021/11/19 11:55:08;;;;;;;;;;;19.30;37.90;;;;;;478224;247;1060;-75
2021/11/19 11:57:09;;;;;;;;;;;19.30;37.90;;;;;;478194;247;1124;-75